Portada
METAR-TAF:

METAR-TAF

Aeroports :

Briansk, Rússia

latitud: 53-15N, longitud: 034-19E, altitud: 217 m

Observació

L'informe es va fer fa 23 minuts, a les 05:30 UTC
Vent 4 kt del Sud
Temperatura 18°C
Humitat 64%
Pressió 1019 hPa
Visibilitat 10 km o més
sense núvols per sota de 1500 mi sense presència de cumulonimbus.

METAR: UUBP 040530Z 18002MPS CAVOK 18/11 Q1019 R16/CLRD70 NOSIG RMK QFE746/0995

Hora: 08:53 (05:53 UTC)

Pronòstic

L'informe es va fer fa 1 hora i 54 minuts, a les 03:59 UTC
Pronòstic vàlid del 04 a les 05 UTC al 04 a les 15 UTC
Vent 6 kt del Sud
Visibilitat 10 km o més
Cel ennuvolat a una alçada de 3000 ft

TAF: UUBP 040359Z 0405/0415 18003MPS 9999 BKN030

Observacions i pronòstics meteorològics de més de 4000 aeroports (METAR i TAF).

Les estacions disponibles són els punts grocs i vermells al mapa.

Posi el ratolí al punt desitjat per veure el nom de l'estació.

Feu clic per veure les observacions i els pronòstics meteorològics.

Per canviar el mapa: feu clic els botons verds amb una creu de color negre per apropar; al botó verd amb un guió per allunyar la imatge; o en les fletxes verdes per a mapes adjacents.


METAR-TAF: